createdAt,value
2022-08-07T00:01:01.393Z,9.00
2022-08-07T00:06:29.468Z,9.17
2022-08-07T00:11:48.000Z,8.97
2022-08-07T00:16:56.723Z,9.97
2022-08-07T00:22:02.057Z,9.63
2022-08-07T00:27:07.328Z,9.10
2022-08-07T00:32:11.517Z,9.70
2022-08-07T00:37:16.675Z,9.80
2022-08-07T00:42:18.914Z,9.90
2022-08-07T00:48:09.070Z,10.27
2022-08-07T00:52:53.925Z,10.27
2022-08-07T00:57:56.645Z,10.73
2022-08-07T01:02:59.087Z,9.90
2022-08-07T01:08:01.548Z,11.50
2022-08-07T01:13:04.207Z,10.90
2022-08-07T01:18:06.939Z,10.60
2022-08-07T01:23:13.707Z,11.33
2022-08-07T01:28:17.484Z,10.40
2022-08-07T01:33:23.882Z,11.37
2022-08-07T01:38:33.330Z,11.37
2022-08-07T01:43:45.599Z,11.00
2022-08-07T01:48:49.011Z,10.90
2022-08-07T01:54:08.424Z,11.43
2022-08-07T01:59:30.973Z,10.43
2022-08-07T02:04:55.936Z,10.13
2022-08-07T02:10:01.315Z,10.87
2022-08-07T02:15:06.930Z,9.37
2022-08-07T02:20:17.509Z,9.90
2022-08-07T02:26:10.891Z,9.87
2022-08-07T02:30:51.763Z,10.20
2022-08-07T02:36:28.599Z,10.30
2022-08-07T02:41:21.743Z,11.00
2022-08-07T02:46:27.707Z,10.73
2022-08-07T02:51:42.785Z,10.30
2022-08-07T02:56:54.756Z,10.57
2022-08-07T03:01:57.663Z,11.50
2022-08-07T03:07:07.305Z,12.20
2022-08-07T03:12:21.836Z,11.63
2022-08-07T03:17:26.803Z,12.77
2022-08-07T03:22:31.714Z,13.07
2022-08-07T03:28:08.993Z,12.03
2022-08-07T03:32:58.664Z,13.10
2022-08-07T03:38:05.923Z,12.40
2022-08-07T03:43:14.781Z,12.77
2022-08-07T03:48:25.968Z,12.50
2022-08-07T03:53:49.903Z,12.67
2022-08-07T03:59:08.123Z,12.50
2022-08-07T04:04:17.629Z,12.50
2022-08-07T04:09:23.468Z,12.53
2022-08-07T04:14:37.562Z,13.60
2022-08-07T04:19:51.915Z,13.43
2022-08-07T04:24:56.277Z,13.23
2022-08-07T04:30:04.566Z,12.43
2022-08-07T04:35:19.632Z,14.20
2022-08-07T04:40:29.651Z,12.70
2022-08-07T04:46:00.835Z,13.27
2022-08-07T04:51:32.172Z,12.57
2022-08-07T04:58:11.161Z,12.57
2022-08-07T05:02:29.555Z,13.03
2022-08-07T05:08:01.434Z,11.80
2022-08-07T05:14:55.126Z,12.77
2022-08-07T05:18:40.710Z,11.13
2022-08-07T05:23:48.023Z,11.50
2022-08-07T05:28:55.663Z,10.97
2022-08-07T05:34:05.569Z,10.07
2022-08-07T05:40:16.798Z,9.70
2022-08-07T05:44:46.646Z,9.90
2022-08-07T05:50:04.648Z,10.20
2022-08-07T05:55:10.895Z,8.43
2022-08-07T06:00:18.342Z,8.90
2022-08-07T06:05:31.402Z,9.17
2022-08-07T06:10:39.492Z,8.70
2022-08-07T06:15:49.886Z,8.40
2022-08-07T06:22:15.984Z,8.50
2022-08-07T06:26:19.539Z,8.33
2022-08-07T06:31:38.587Z,8.03
2022-08-07T06:36:46.231Z,7.50
2022-08-07T06:42:04.878Z,7.00
2022-08-07T06:47:27.160Z,6.90
2022-08-07T06:52:36.475Z,6.57
2022-08-07T06:57:49.962Z,6.57
2022-08-07T07:03:00.794Z,5.90
2022-08-07T07:08:06.623Z,7.00
2022-08-07T07:13:43.461Z,6.93
2022-08-07T07:18:47.847Z,6.60
2022-08-07T07:24:09.725Z,6.37
2022-08-07T07:29:57.196Z,5.70
2022-08-07T07:34:39.547Z,6.77
2022-08-07T07:39:52.399Z,6.47
2022-08-07T07:44:58.826Z,5.90
2022-08-07T07:50:35.276Z,5.60
2022-08-07T07:55:27.308Z,5.43
2022-08-07T08:00:40.585Z,5.47
2022-08-07T08:05:55.278Z,5.10
2022-08-07T08:10:57.923Z,4.60
2022-08-07T08:16:02.500Z,4.57
2022-08-07T08:21:07.595Z,4.83
2022-08-07T08:26:32.028Z,5.23
2022-08-07T08:31:59.024Z,4.83
2022-08-07T08:37:09.864Z,4.53
2022-08-07T08:42:40.523Z,4.30
2022-08-07T08:48:13.367Z,3.90
2022-08-07T08:53:34.846Z,4.03
2022-08-07T08:59:13.761Z,3.90
2022-08-07T09:04:37.287Z,3.50
2022-08-07T09:09:57.032Z,3.50
2022-08-07T09:16:25.227Z,3.47
2022-08-07T09:21:13.798Z,3.00
2022-08-07T09:27:13.475Z,3.50
2022-08-07T09:32:28.146Z,3.57
2022-08-07T09:38:11.954Z,3.13
2022-08-07T09:44:03.470Z,3.43
2022-08-07T09:50:02.147Z,3.33
2022-08-07T09:54:48.592Z,3.67
2022-08-07T10:00:08.091Z,3.40
2022-08-07T10:05:59.539Z,3.60
2022-08-07T10:11:58.905Z,3.03
2022-08-07T10:16:56.643Z,2.93
2022-08-07T10:22:36.759Z,2.83
2022-08-07T10:28:03.024Z,2.90
2022-08-07T10:33:15.130Z,2.90
2022-08-07T10:38:35.971Z,3.23
2022-08-07T10:44:14.889Z,2.80
2022-08-07T10:49:49.918Z,2.50
2022-08-07T10:55:01.355Z,3.00
2022-08-07T11:00:08.937Z,2.33
2022-08-07T11:05:49.267Z,2.60
2022-08-07T11:11:05.865Z,2.60
2022-08-07T11:16:35.952Z,2.50
2022-08-07T11:21:55.910Z,2.10
2022-08-07T11:28:01.581Z,2.37
2022-08-07T11:33:53.673Z,2.43
2022-08-07T11:38:58.084Z,2.57
2022-08-07T11:44:11.967Z,2.40
2022-08-07T11:49:50.389Z,2.10
2022-08-07T11:55:13.032Z,2.70
2022-08-07T12:00:28.492Z,2.50
2022-08-07T12:05:58.356Z,2.30
2022-08-07T12:11:20.392Z,2.47
2022-08-07T12:16:30.155Z,2.10
2022-08-07T12:22:38.120Z,3.30
2022-08-07T12:27:17.701Z,2.33
2022-08-07T12:32:53.513Z,2.17
2022-08-07T12:38:09.806Z,2.20
2022-08-07T12:44:01.591Z,2.17
2022-08-07T12:49:39.655Z,2.33
2022-08-07T12:54:54.510Z,2.23
2022-08-07T12:59:59.421Z,2.00
2022-08-07T13:06:03.283Z,2.27
2022-08-07T13:12:00.898Z,2.40
2022-08-07T13:17:05.910Z,2.33
2022-08-07T13:22:35.324Z,2.77
2022-08-07T13:28:11.434Z,2.50
2022-08-07T13:34:31.257Z,2.77
2022-08-07T13:39:02.751Z,2.40
2022-08-07T13:44:10.775Z,2.90
2022-08-07T13:50:34.004Z,2.70
2022-08-07T13:54:41.422Z,2.50
2022-08-07T13:59:55.673Z,2.10
2022-08-07T14:05:02.415Z,2.43
2022-08-07T14:10:20.503Z,2.13
2022-08-07T14:15:32.138Z,2.60
2022-08-07T14:20:48.705Z,2.30
2022-08-07T14:26:00.508Z,2.30
2022-08-07T14:31:05.494Z,2.70
2022-08-07T14:36:09.431Z,2.80
2022-08-07T14:41:33.818Z,2.27
2022-08-07T14:46:51.751Z,2.40
2022-08-07T14:52:11.114Z,2.73
2022-08-07T14:57:28.920Z,2.20
2022-08-07T15:02:39.066Z,2.60
2022-08-07T15:07:47.347Z,2.30
2022-08-07T15:12:58.282Z,2.50
2022-08-07T15:18:04.982Z,3.73
2022-08-07T15:23:53.558Z,2.30
2022-08-07T15:28:56.703Z,2.37
2022-08-07T15:34:03.656Z,3.03
2022-08-07T15:39:10.580Z,2.20
2022-08-07T15:44:17.229Z,2.77
2022-08-07T15:54:43.739Z,2.33
2022-08-07T15:59:47.666Z,2.40
2022-08-07T16:04:50.327Z,2.47
2022-08-07T16:10:01.079Z,2.60
2022-08-07T16:15:55.003Z,3.03
2022-08-07T16:21:44.126Z,2.70
2022-08-07T16:26:30.818Z,2.37
2022-08-07T16:31:50.973Z,2.70
2022-08-07T16:38:05.654Z,2.37
2022-08-07T16:43:07.533Z,2.70
2022-08-07T16:48:28.658Z,2.90
2022-08-07T16:54:01.088Z,3.50
2022-08-07T16:59:10.676Z,4.57
2022-08-07T17:04:24.654Z,3.10
2022-08-07T17:10:07.197Z,2.93
2022-08-07T17:15:03.856Z,3.20
2022-08-07T17:20:20.611Z,2.60
2022-08-07T17:25:51.263Z,2.57
2022-08-07T17:31:15.587Z,3.07
2022-08-07T17:36:25.829Z,2.30
2022-08-07T17:42:03.097Z,2.27
2022-08-07T17:47:08.475Z,2.17
2022-08-07T17:52:30.392Z,2.83
2022-08-07T17:57:59.083Z,2.87
2022-08-07T18:03:10.287Z,2.40
2022-08-07T18:08:25.128Z,2.50
2022-08-07T18:13:40.681Z,2.60
2022-08-07T18:21:09.844Z,2.53
2022-08-07T18:24:11.955Z,2.80
2022-08-07T18:30:06.396Z,2.57
2022-08-07T18:35:51.852Z,2.53
2022-08-07T18:41:22.543Z,2.40
2022-08-07T18:46:29.190Z,2.30
2022-08-07T18:52:33.710Z,2.67
2022-08-07T18:57:58.601Z,2.37
2022-08-07T19:03:02.035Z,2.93
2022-08-07T19:08:11.317Z,2.53
2022-08-07T19:13:24.595Z,2.47
2022-08-07T19:18:34.595Z,2.20
2022-08-07T19:23:58.135Z,3.03
2022-08-07T19:30:55.556Z,2.90
2022-08-07T19:34:34.169Z,2.80
2022-08-07T19:39:57.949Z,3.10
2022-08-07T19:45:08.473Z,3.10
2022-08-07T19:50:43.041Z,2.90
2022-08-07T19:55:57.283Z,2.80
2022-08-07T20:00:58.402Z,2.87
2022-08-07T20:06:06.479Z,3.43
2022-08-07T20:11:34.122Z,3.23
2022-08-07T20:16:45.228Z,3.17
2022-08-07T20:21:49.619Z,3.13
2022-08-07T20:26:58.293Z,3.63
2022-08-07T20:32:02.791Z,3.30
2022-08-07T20:37:06.023Z,3.60
2022-08-07T20:42:13.495Z,3.67
2022-08-07T20:47:25.118Z,3.50
2022-08-07T20:52:31.801Z,3.30
2022-08-07T20:58:03.621Z,3.90
2022-08-07T21:03:07.367Z,3.30
2022-08-07T21:08:12.629Z,3.50
2022-08-07T21:13:19.268Z,3.43
2022-08-07T21:18:33.300Z,3.70
2022-08-07T21:24:16.277Z,3.60
2022-08-07T21:29:30.792Z,3.50
2022-08-07T21:34:46.337Z,3.33
2022-08-07T21:40:05.647Z,3.57
2022-08-07T21:46:08.213Z,3.77
2022-08-07T21:51:32.051Z,3.73
2022-08-07T21:56:50.617Z,4.10
2022-08-07T22:02:10.529Z,3.83
2022-08-07T22:07:48.684Z,3.73
2022-08-07T22:12:53.324Z,4.57
2022-08-07T22:17:59.387Z,3.87
2022-08-07T22:23:28.225Z,4.00
2022-08-07T22:28:53.234Z,3.67
2022-08-07T22:34:05.029Z,3.43
2022-08-07T22:39:52.594Z,3.40
2022-08-07T22:45:02.013Z,4.20
2022-08-07T22:50:20.801Z,3.43
2022-08-07T22:55:37.323Z,3.60
2022-08-07T23:00:57.223Z,3.57
2022-08-07T23:06:16.596Z,3.70
2022-08-07T23:11:59.237Z,3.10
2022-08-07T23:17:18.041Z,3.50
2022-08-07T23:22:36.831Z,3.67
2022-08-07T23:28:22.500Z,3.30
2022-08-07T23:34:20.671Z,3.50
2022-08-07T23:39:25.918Z,3.20
2022-08-07T23:44:49.933Z,3.27
2022-08-07T23:50:05.345Z,2.97
2022-08-07T23:55:10.470Z,3.30
